Time;durP1;ratioP1;P1;durP2;ratioP2;P2;SDS_P1;SDS_P2;PMS_P1;PMS_P2;Temp;Humidity;BMP_temperature;BMP_pressure;BME280_temperature;BME280_humidity;BME280_pressure;Samples;Min_cycle;Max_cycle;Signal;HPM_P1;HPM_P2
2022/09/02 00:01:47;;;;;;;4.85;1.20;;;17.10;99.90;;;;;;4996193;28;20041;-67
2022/09/02 00:04:16;;;;;;;2.53;1.15;;;17.10;99.90;;;;;;4996205;28;20388;-67
2022/09/02 00:06:44;;;;;;;5.05;1.30;;;17.10;99.90;;;;;;4996186;28;20437;-67
2022/09/02 00:09:12;;;;;;;3.72;0.98;;;17.10;99.90;;;;;;4995760;28;20493;-69
2022/09/02 00:11:39;;;;;;;2.08;1.35;;;17.10;99.90;;;;;;4996275;28;20469;-67
2022/09/02 00:14:09;;;;;;;3.08;1.10;;;17.10;99.90;;;;;;4995664;28;20528;-67
2022/09/02 00:16:35;;;;;;;4.57;1.20;;;17.10;99.90;;;;;;4995610;28;20026;-67
2022/09/02 00:19:02;;;;;;;4.53;1.10;;;17.10;99.90;;;;;;4993951;28;20158;-67
2022/09/02 00:21:29;;;;;;;4.65;1.30;;;17.00;99.90;;;;;;4995523;28;20042;-67
2022/09/02 00:23:55;;;;;;;4.30;1.23;;;17.00;99.90;;;;;;4995805;28;20488;-69
2022/09/02 00:26:21;;;;;;;2.70;1.00;;;17.10;99.90;;;;;;4995612;28;20026;-68
2022/09/02 00:28:47;;;;;;;1.75;1.17;;;17.00;99.90;;;;;;4995364;28;20091;-68
2022/09/02 00:31:14;;;;;;;4.78;1.30;;;17.00;99.90;;;;;;4995818;28;20036;-66
2022/09/02 00:33:39;;;;;;;3.70;1.30;;;17.00;99.90;;;;;;4995971;28;20026;-68
2022/09/02 00:36:06;;;;;;;5.80;1.40;;;17.00;99.90;;;;;;4995880;28;20067;-67
2022/09/02 00:38:33;;;;;;;4.13;1.50;;;17.00;99.90;;;;;;4996017;28;20058;-69
2022/09/02 00:41:01;;;;;;;3.25;1.10;;;16.90;99.90;;;;;;4995817;28;20040;-67
2022/09/02 00:43:46;;;;;;;1.10;0.90;;;16.90;99.90;;;;;;4994780;28;20077;-67
2022/09/02 00:46:15;;;;;;;3.83;1.20;;;16.90;99.90;;;;;;4995050;28;20029;-70
2022/09/02 00:48:47;;;;;;;2.42;1.50;;;16.90;99.90;;;;;;4995290;28;20033;-68
2022/09/02 00:51:13;;;;;;;3.13;1.20;;;16.90;99.90;;;;;;4994254;28;20026;-67
2022/09/02 00:53:41;;;;;;;6.00;1.60;;;16.90;99.90;;;;;;4995842;28;20027;-66
2022/09/02 00:56:13;;;;;;;2.38;1.30;;;16.80;99.90;;;;;;4994766;28;20069;-67
2022/09/02 00:58:42;;;;;;;2.08;1.27;;;16.80;99.90;;;;;;4995438;28;20027;-67
2022/09/02 01:01:10;;;;;;;2.35;1.10;;;16.80;99.90;;;;;;4995079;28;20031;-70
2022/09/02 01:03:36;;;;;;;6.75;1.70;;;16.80;99.90;;;;;;4994937;28;20073;-67
2022/09/02 01:06:03;;;;;;;4.22;1.50;;;16.80;99.90;;;;;;4995275;28;20044;-68
2022/09/02 01:08:33;;;;;;;3.28;1.40;;;16.70;99.90;;;;;;4994621;28;20027;-68
2022/09/02 01:11:00;;;;;;;2.97;1.38;;;16.70;99.90;;;;;;4994611;28;20049;-67
2022/09/02 01:13:29;;;;;;;2.50;1.60;;;16.70;99.90;;;;;;4994657;28;20396;-68
2022/09/02 01:16:03;;;;;;;3.08;1.48;;;16.70;99.90;;;;;;4994417;28;20033;-67
2022/09/02 01:18:30;;;;;;;6.57;1.65;;;16.70;99.90;;;;;;4993227;28;20061;-67
2022/09/02 01:20:58;;;;;;;1.50;1.40;;;16.60;99.90;;;;;;4993095;28;20042;-67
2022/09/02 01:23:26;;;;;;;5.88;1.67;;;16.60;99.90;;;;;;4994583;28;20105;-67
2022/09/02 01:25:52;;;;;;;3.78;1.35;;;16.50;99.90;;;;;;4994523;28;20027;-69
2022/09/02 01:28:18;;;;;;;3.05;1.50;;;16.50;99.90;;;;;;4994858;28;20027;-69
2022/09/02 01:30:49;;;;;;;4.55;1.80;;;16.50;99.90;;;;;;4994339;28;20041;-68
2022/09/02 01:33:16;;;;;;;2.83;1.77;;;16.40;99.90;;;;;;4994074;28;20022;-66
2022/09/02 01:35:42;;;;;;;3.25;1.60;;;16.50;99.90;;;;;;4994008;28;20048;-68
2022/09/02 01:38:08;;;;;;;3.35;1.52;;;16.40;99.90;;;;;;4994616;28;20429;-67
2022/09/02 01:40:34;;;;;;;3.90;1.70;;;16.40;99.90;;;;;;4994306;28;20465;-67
2022/09/02 01:43:05;;;;;;;6.85;2.15;;;16.30;99.90;;;;;;4994271;28;20019;-68
2022/09/02 01:45:31;;;;;;;6.93;2.25;;;16.30;99.90;;;;;;4994232;28;20014;-66
2022/09/02 01:47:57;;;;;;;3.80;1.80;;;16.30;99.90;;;;;;4992617;28;20026;-67
2022/09/02 01:50:23;;;;;;;3.47;1.65;;;16.20;99.90;;;;;;4994042;28;20024;-66
2022/09/02 01:52:48;;;;;;;5.03;2.00;;;16.20;99.90;;;;;;4993789;28;20054;-68
2022/09/02 01:55:14;;;;;;;3.15;1.77;;;16.20;99.90;;;;;;4993782;28;20026;-69
2022/09/02 01:57:39;;;;;;;4.30;1.83;;;16.20;99.90;;;;;;4993849;28;20054;-68
2022/09/02 02:00:07;;;;;;;5.00;1.80;;;16.10;99.90;;;;;;4993854;28;20069;-70
2022/09/02 02:02:33;;;;;;;2.47;1.48;;;16.10;99.90;;;;;;4993941;28;20167;-68
2022/09/02 02:04:59;;;;;;;6.43;1.85;;;16.00;99.90;;;;;;4993442;28;20117;-68
2022/09/02 02:07:24;;;;;;;3.83;1.45;;;16.00;99.90;;;;;;4993972;28;20109;-67
2022/09/02 02:09:50;;;;;;;2.55;1.50;;;16.00;99.90;;;;;;4992033;28;20046;-70
2022/09/02 02:12:17;;;;;;;5.07;1.77;;;16.00;99.90;;;;;;4993940;28;20026;-67
2022/09/02 02:14:42;;;;;;;1.92;1.55;;;15.90;99.90;;;;;;4994013;28;20449;-66
2022/09/02 02:17:08;;;;;;;4.10;1.80;;;15.90;99.90;;;;;;4993661;28;20022;-67
2022/09/02 02:19:34;;;;;;;3.20;1.70;;;15.90;99.90;;;;;;4993768;28;20457;-66
2022/09/02 02:21:59;;;;;;;4.65;1.50;;;15.90;99.90;;;;;;4992637;28;20034;-68
2022/09/02 02:24:25;;;;;;;3.50;1.60;;;15.80;99.90;;;;;;4991259;28;20038;-67
2022/09/02 02:26:51;;;;;;;3.50;1.50;;;15.80;99.90;;;;;;4991117;28;20077;-68
2022/09/02 02:29:17;;;;;;;2.10;1.38;;;15.80;99.90;;;;;;4991896;28;20456;-67
2022/09/02 02:31:42;;;;;;;4.35;1.73;;;15.80;99.90;;;;;;4992088;28;20049;-69
2022/09/02 02:34:09;;;;;;;8.98;1.60;;;15.80;99.90;;;;;;4992060;28;20453;-68
2022/09/02 02:36:36;;;;;;;6.32;1.65;;;15.80;99.90;;;;;;4992038;28;20022;-67
2022/09/02 02:39:03;;;;;;;2.35;1.52;;;15.70;99.90;;;;;;4991900;28;20026;-70
2022/09/02 02:41:29;;;;;;;3.03;1.70;;;15.80;99.90;;;;;;4991992;28;20034;-66
2022/09/02 02:43:55;;;;;;;1.92;1.48;;;15.70;99.90;;;;;;4992120;28;20031;-68
2022/09/02 02:46:20;;;;;;;4.30;1.48;;;15.70;99.90;;;;;;4991530;28;20026;-67
2022/09/02 02:48:46;;;;;;;4.15;1.60;;;15.70;99.90;;;;;;4992127;28;20055;-67
2022/09/02 02:51:12;;;;;;;4.15;1.58;;;15.70;99.90;;;;;;4991756;28;20369;-68
2022/09/02 02:53:37;;;;;;;3.05;1.60;;;15.60;99.90;;;;;;4991798;28;20030;-67
2022/09/02 02:56:04;;;;;;;3.25;1.80;;;15.60;99.90;;;;;;4990348;28;20022;-67
2022/09/02 02:58:30;;;;;;;3.40;1.88;;;15.60;99.90;;;;;;4991600;28;20048;-67
2022/09/02 03:00:57;;;;;;;3.38;1.70;;;15.50;99.90;;;;;;4991277;28;20526;-69
2022/09/02 03:03:24;;;;;;;6.80;1.63;;;15.50;99.90;;;;;;4991410;28;20022;-67
2022/09/02 03:05:50;;;;;;;4.80;1.80;;;15.50;99.90;;;;;;4991762;28;20101;-67
2022/09/02 03:08:19;;;;;;;4.53;1.80;;;15.50;99.90;;;;;;4990340;28;20035;-67
2022/09/02 03:10:46;;;;;;;5.47;2.03;;;15.50;99.90;;;;;;4989239;28;20038;-68
2022/09/02 03:13:14;;;;;;;3.20;1.83;;;15.40;99.90;;;;;;4991730;28;20089;-69
2022/09/02 03:15:41;;;;;;;4.70;1.90;;;15.40;99.90;;;;;;4989995;28;20029;-67
2022/09/02 03:18:07;;;;;;;6.63;1.92;;;15.40;99.90;;;;;;4991553;28;20023;-67
2022/09/02 03:20:33;;;;;;;2.95;1.75;;;15.40;99.90;;;;;;4991474;28;20061;-67
2022/09/02 03:22:59;;;;;;;4.13;2.10;;;15.40;99.90;;;;;;4991669;28;20086;-68
2022/09/02 03:25:27;;;;;;;3.22;2.00;;;15.40;99.90;;;;;;4990118;28;20461;-67
2022/09/02 03:27:53;;;;;;;4.18;1.90;;;15.30;99.90;;;;;;4991222;28;20022;-68
2022/09/02 03:30:30;;;;;;;5.50;1.98;;;15.30;99.90;;;;;;4991284;28;20031;-68
2022/09/02 03:32:58;;;;;;;4.07;1.95;;;15.30;99.90;;;;;;4992858;28;20026;-66
2022/09/02 03:35:24;;;;;;;3.70;1.63;;;15.30;99.90;;;;;;4992651;28;20026;-66
2022/09/02 03:37:50;;;;;;;4.18;1.90;;;15.20;99.90;;;;;;4995682;28;20077;-68
2022/09/02 03:40:22;;;;;;;3.80;1.95;;;15.20;99.90;;;;;;4995646;28;20083;-68
2022/09/02 03:42:48;;;;;;;3.83;2.03;;;15.20;99.90;;;;;;4993325;28;20054;-67
2022/09/02 03:45:15;;;;;;;4.00;2.00;;;15.20;99.90;;;;;;4993988;28;20069;-69
2022/09/02 03:47:49;;;;;;;3.47;1.83;;;15.20;99.90;;;;;;4995056;28;20018;-69
2022/09/02 03:50:20;;;;;;;6.10;2.15;;;15.20;99.90;;;;;;4993943;28;20022;-69
2022/09/02 03:52:46;;;;;;;6.15;2.30;;;15.20;99.90;;;;;;4992971;28;20460;-69
2022/09/02 03:55:12;;;;;;;3.88;2.45;;;15.10;99.90;;;;;;4994772;28;20014;-67
2022/09/02 03:57:37;;;;;;;4.05;1.92;;;15.10;99.90;;;;;;4993536;28;20104;-68
2022/09/02 04:00:07;;;;;;;8.45;1.67;;;15.10;99.90;;;;;;4993625;28;20030;-70
2022/09/02 04:02:32;;;;;;;7.20;1.90;;;15.10;99.90;;;;;;4992663;28;20022;-68
2022/09/02 04:04:58;;;;;;;3.13;1.80;;;15.10;99.90;;;;;;4994870;28;20022;-68
2022/09/02 04:07:23;;;;;;;4.97;2.00;;;15.10;99.90;;;;;;4994870;28;20096;-70
2022/09/02 04:09:49;;;;;;;1.98;1.60;;;15.10;99.90;;;;;;4994189;28;20044;-66
2022/09/02 04:12:15;;;;;;;3.03;1.73;;;15.10;99.90;;;;;;4994844;28;20089;-68
2022/09/02 04:14:41;;;;;;;2.28;1.63;;;15.10;99.90;;;;;;4994856;28;20014;-68
2022/09/02 04:17:06;;;;;;;3.10;1.60;;;15.10;99.90;;;;;;4994555;28;20019;-67
2022/09/02 04:19:32;;;;;;;4.65;1.95;;;15.10;99.90;;;;;;4994769;28;20101;-67
2022/09/02 04:21:57;;;;;;;5.70;1.60;;;15.10;99.90;;;;;;4993140;28;20034;-68
2022/09/02 04:24:23;;;;;;;4.65;2.13;;;15.10;99.90;;;;;;4994606;28;20104;-67
2022/09/02 04:26:49;;;;;;;5.78;1.92;;;15.10;99.90;;;;;;4994201;28;20014;-68
2022/09/02 04:29:15;;;;;;;2.60;2.08;;;15.10;99.90;;;;;;4993114;28;20040;-68
2022/09/02 04:31:41;;;;;;;6.05;1.98;;;15.10;99.90;;;;;;4994291;28;20025;-68
2022/09/02 04:34:07;;;;;;;5.20;1.83;;;15.10;99.90;;;;;;4992947;28;20015;-68
2022/09/02 04:36:32;;;;;;;3.50;2.10;;;15.10;99.90;;;;;;4994322;28;20018;-70
2022/09/02 04:38:58;;;;;;;4.18;1.80;;;15.10;99.90;;;;;;4993644;28;20010;-68
2022/09/02 04:41:27;;;;;;;2.95;1.70;;;15.10;99.90;;;;;;4993810;28;20100;-66
2022/09/02 04:43:55;;;;;;;2.60;1.83;;;15.10;99.90;;;;;;4989603;28;20396;-70
2022/09/02 04:46:21;;;;;;;4.22;1.67;;;15.10;99.90;;;;;;4994011;28;20089;-67
2022/09/02 04:48:47;;;;;;;3.08;1.88;;;15.10;99.90;;;;;;4993699;28;20018;-67
2022/09/02 04:51:16;;;;;;;4.07;2.10;;;15.20;99.90;;;;;;4993800;28;20516;-67
2022/09/02 04:53:42;;;;;;;3.58;1.70;;;15.20;99.90;;;;;;4993688;28;20515;-68
2022/09/02 04:56:10;;;;;;;4.07;1.60;;;15.20;99.90;;;;;;4993444;28;20348;-66
2022/09/02 04:58:36;;;;;;;4.13;2.08;;;15.20;99.90;;;;;;4993951;28;20033;-68
2022/09/02 05:01:12;;;;;;;4.20;2.13;;;15.30;99.90;;;;;;4992316;28;20039;-68
2022/09/02 05:03:38;;;;;;;3.75;1.90;;;15.20;99.90;;;;;;4995248;28;20396;-68
2022/09/02 05:06:06;;;;;;;4.57;2.15;;;15.20;99.90;;;;;;4995210;28;20854;-70
2022/09/02 05:08:35;;;;;;;3.28;2.22;;;15.20;99.90;;;;;;4995031;28;20129;-69
2022/09/02 05:11:04;;;;;;;4.13;2.35;;;15.20;99.90;;;;;;4995167;28;20077;-68
2022/09/02 05:13:30;;;;;;;4.75;2.38;;;15.30;99.90;;;;;;4995101;28;20045;-67
2022/09/02 05:15:55;;;;;;;5.40;2.20;;;15.30;99.90;;;;;;4994581;28;20364;-67
2022/09/02 05:18:21;;;;;;;3.28;2.10;;;15.30;99.90;;;;;;4994769;28;20065;-67
2022/09/02 05:20:47;;;;;;;7.20;2.70;;;15.40;99.90;;;;;;4993271;28;20037;-68
2022/09/02 05:23:12;;;;;;;2.92;2.10;;;15.40;99.90;;;;;;4994624;28;20356;-68
2022/09/02 05:25:39;;;;;;;6.72;3.08;;;15.50;99.90;;;;;;4994967;28;20018;-67
2022/09/02 05:28:07;;;;;;;6.93;2.30;;;15.60;99.90;;;;;;4993528;28;20188;-67
2022/09/02 05:30:37;;;;;;;5.13;2.42;;;15.60;99.90;;;;;;4994807;28;20413;-70
2022/09/02 05:33:03;;;;;;;6.43;2.47;;;15.70;99.90;;;;;;4994762;28;20029;-66
2022/09/02 05:35:29;;;;;;;5.15;2.47;;;15.80;99.90;;;;;;4993319;28;20018;-66
2022/09/02 05:37:55;;;;;;;6.88;2.42;;;15.90;99.90;;;;;;4994490;28;20114;-68
2022/09/02 05:40:21;;;;;;;5.47;2.55;;;15.90;99.90;;;;;;4994519;28;20026;-68
2022/09/02 05:42:46;;;;;;;5.65;2.33;;;16.00;99.90;;;;;;4994529;28;20424;-67
2022/09/02 05:45:12;;;;;;;5.07;2.13;;;16.10;99.90;;;;;;4994699;28;20026;-67
2022/09/02 05:47:38;;;;;;;7.57;2.00;;;16.10;99.90;;;;;;4992778;28;20065;-67
2022/09/02 05:50:04;;;;;;;5.47;2.28;;;16.20;99.90;;;;;;4993036;28;20030;-67
2022/09/02 05:52:31;;;;;;;7.68;2.10;;;16.30;99.90;;;;;;4992999;28;20361;-67
2022/09/02 05:54:56;;;;;;;10.40;3.17;;;16.30;99.90;;;;;;4994291;28;20074;-66
2022/09/02 05:57:22;;;;;;;10.23;4.15;;;16.40;99.90;;;;;;4994042;28;20022;-67
2022/09/02 05:59:54;;;;;;;7.68;3.40;;;16.50;99.90;;;;;;4993897;28;20033;-70
2022/09/02 06:02:21;;;;;;;6.22;1.70;;;16.50;99.90;;;;;;4992760;28;20113;-67
2022/09/02 06:04:49;;;;;;;8.43;2.22;;;16.60;99.90;;;;;;4994073;28;20030;-68
2022/09/02 06:07:16;;;;;;;8.63;2.15;;;16.70;99.90;;;;;;4994210;28;20026;-71
2022/09/02 06:09:43;;;;;;;5.40;2.55;;;16.70;99.90;;;;;;4993805;28;20078;-68
2022/09/02 06:12:10;;;;;;;6.38;2.40;;;16.80;99.90;;;;;;4994304;28;20022;-68
2022/09/02 06:14:36;;;;;;;5.80;2.10;;;16.90;99.90;;;;;;4993424;28;20030;-70
2022/09/02 06:17:03;;;;;;;8.98;2.47;;;17.00;99.90;;;;;;4993575;28;20056;-69
2022/09/02 06:19:29;;;;;;;10.77;2.90;;;17.10;99.90;;;;;;4993895;28;20457;-68
2022/09/02 06:21:55;;;;;;;7.15;2.60;;;17.10;99.90;;;;;;4993741;28;20038;-68
2022/09/02 06:24:22;;;;;;;6.30;2.10;;;17.10;99.90;;;;;;4993654;28;20041;-69
2022/09/02 06:26:48;;;;;;;7.78;2.95;;;17.20;99.90;;;;;;4992409;28;20121;-66
2022/09/02 06:29:14;;;;;;;8.60;2.45;;;17.20;99.90;;;;;;4993141;28;20026;-68
2022/09/02 06:31:44;;;;;;;8.82;2.78;;;17.30;99.90;;;;;;4993185;28;20463;-69
2022/09/02 06:34:12;;;;;;;4.82;2.10;;;17.40;99.90;;;;;;4993379;28;20483;-67
2022/09/02 06:36:41;;;;;;;5.03;1.98;;;17.40;99.90;;;;;;4993272;28;20027;-68
2022/09/02 06:39:10;;;;;;;6.50;2.33;;;17.50;99.90;;;;;;4993511;28;20534;-67
2022/09/02 06:41:38;;;;;;;7.18;2.10;;;17.50;99.90;;;;;;4993519;28;20089;-67
2022/09/02 06:44:05;;;;;;;5.60;1.98;;;17.50;99.90;;;;;;4993503;28;20037;-70
2022/09/02 06:46:37;;;;;;;7.95;2.40;;;17.60;99.90;;;;;;4991596;28;20117;-67
2022/09/02 06:49:05;;;;;;;9.13;3.00;;;17.70;99.90;;;;;;4992286;28;20030;-66
2022/09/02 06:51:36;;;;;;;7.55;2.70;;;17.80;99.90;;;;;;4992071;28;20085;-67
2022/09/02 06:54:04;;;;;;;5.75;2.50;;;17.90;99.90;;;;;;4992306;28;20365;-67
2022/09/02 06:56:29;;;;;;;7.00;2.78;;;18.10;99.90;;;;;;4992004;28;20105;-69
2022/09/02 06:58:56;;;;;;;7.28;2.72;;;18.20;99.90;;;;;;4992801;28;20098;-66
2022/09/02 07:01:24;;;;;;;10.50;2.67;;;18.40;99.90;;;;;;4992776;28;20045;-68
2022/09/02 07:06:38;;;;;;;7.15;2.92;;;18.70;99.80;;;;;;4993084;28;20525;-67
2022/09/02 07:09:06;;;;;;;8.80;3.00;;;18.90;99.60;;;;;;4992225;28;20536;-67
2022/09/02 07:11:32;;;;;;;9.13;2.20;;;19.00;99.40;;;;;;4993126;28;20471;-69
2022/09/02 07:14:00;;;;;;;5.53;2.90;;;19.20;98.30;;;;;;4991488;28;20058;-70
2022/09/02 07:16:28;;;;;;;8.15;2.72;;;19.40;98.00;;;;;;4992427;28;20105;-66
2022/09/02 07:18:55;;;;;;;8.82;3.10;;;19.50;97.30;;;;;;4993033;28;20492;-67
2022/09/02 07:21:21;;;;;;;5.88;2.70;;;19.70;97.20;;;;;;4992871;28;20042;-66
2022/09/02 07:23:46;;;;;;;6.35;2.42;;;20.00;97.00;;;;;;4992466;28;20027;-69
2022/09/02 07:26:14;;;;;;;8.02;2.55;;;20.30;96.00;;;;;;4991495;28;20026;-67
2022/09/02 07:28:41;;;;;;;7.10;2.47;;;20.60;95.40;;;;;;4988141;28;20044;-68
2022/09/02 07:31:10;;;;;;;8.93;2.33;;;20.90;95.10;;;;;;4992410;28;20101;-68
2022/09/02 07:33:36;;;;;;;8.07;2.05;;;21.30;94.10;;;;;;4992744;28;20076;-68
2022/09/02 07:36:09;;;;;;;7.20;2.30;;;21.70;93.20;;;;;;4991123;28;20034;-68
2022/09/02 07:38:35;;;;;;;4.18;1.90;;;22.20;92.40;;;;;;4992838;28;20038;-67
2022/09/02 07:41:01;;;;;;;6.75;2.15;;;22.50;91.80;;;;;;4991260;28;20468;-67
2022/09/02 07:43:29;;;;;;;9.07;2.30;;;23.00;91.30;;;;;;4992699;28;20022;-67
2022/09/02 07:45:55;;;;;;;8.15;2.60;;;23.60;90.50;;;;;;4992742;28;20035;-67
2022/09/02 07:48:24;;;;;;;6.35;2.00;;;24.20;88.20;;;;;;4990764;28;20376;-70
2022/09/02 07:50:50;;;;;;;5.32;1.92;;;24.70;85.60;;;;;;4992382;28;20023;-67
2022/09/02 07:53:17;;;;;;;8.13;1.92;;;25.20;84.20;;;;;;4992613;28;20034;-67
2022/09/02 07:55:43;;;;;;;5.72;2.42;;;25.60;82.50;;;;;;4992164;28;20423;-68
2022/09/02 07:58:10;;;;;;;5.72;2.05;;;26.10;81.50;;;;;;4989812;28;20023;-66
2022/09/02 08:00:36;;;;;;;9.95;2.00;;;26.40;80.40;;;;;;4991711;28;20357;-67
2022/09/02 08:03:03;;;;;;;2.88;1.88;;;26.70;79.10;;;;;;4991625;28;20033;-70
2022/09/02 08:05:34;;;;;;;8.07;2.38;;;26.80;78.20;;;;;;4992454;28;20018;-66
2022/09/02 08:07:59;;;;;;;4.93;1.80;;;26.90;78.20;;;;;;4992621;28;20445;-68
2022/09/02 08:10:28;;;;;;;3.35;1.90;;;26.90;76.90;;;;;;4992496;28;20129;-69
2022/09/02 08:12:59;;;;;;;3.13;1.63;;;27.10;76.30;;;;;;4992096;28;20042;-67
2022/09/02 08:15:27;;;;;;;7.97;2.20;;;27.30;76.20;;;;;;4973205;28;20046;-68
2022/09/02 08:17:54;;;;;;;5.07;1.70;;;27.50;75.50;;;;;;4981927;28;20038;-68
2022/09/02 08:20:20;;;;;;;6.90;2.58;;;27.50;74.90;;;;;;4994107;28;20026;-70
2022/09/02 08:22:46;;;;;;;3.53;1.60;;;27.50;74.60;;;;;;4995770;28;20026;-68
2022/09/02 08:25:12;;;;;;;4.90;1.70;;;27.70;74.50;;;;;;4994796;28;20496;-66
2022/09/02 08:27:37;;;;;;;4.32;1.40;;;28.00;73.80;;;;;;4995010;28;20471;-69
2022/09/02 08:30:04;;;;;;;5.68;2.10;;;28.20;72.80;;;;;;4995503;28;20357;-67
2022/09/02 08:32:31;;;;;;;5.65;1.85;;;28.30;72.30;;;;;;4995791;28;20040;-67
2022/09/02 08:35:01;;;;;;;7.85;2.05;;;28.30;72.10;;;;;;4995469;28;20474;-68
2022/09/02 08:37:30;;;;;;;5.15;2.00;;;28.20;71.90;;;;;;4995813;28;20421;-67
2022/09/02 08:39:56;;;;;;;2.58;1.48;;;28.10;71.70;;;;;;4995379;28;20025;-67
2022/09/02 08:42:23;;;;;;;5.10;1.55;;;28.00;71.60;;;;;;4995623;28;20034;-68
2022/09/02 08:44:54;;;;;;;2.90;1.58;;;28.00;71.80;;;;;;4995414;28;20026;-67
2022/09/02 08:47:28;;;;;;;5.43;1.50;;;28.00;71.40;;;;;;4995569;28;20023;-71
2022/09/02 08:49:59;;;;;;;2.45;1.55;;;28.00;71.60;;;;;;4995457;28;20373;-67
2022/09/02 08:52:35;;;;;;;3.77;1.33;;;28.00;71.20;;;;;;4995611;28;20471;-68
2022/09/02 08:55:01;;;;;;;5.85;1.50;;;28.00;70.80;;;;;;4995497;28;20102;-68
2022/09/02 08:57:28;;;;;;;5.72;1.90;;;28.00;71.10;;;;;;4995129;28;20117;-68
2022/09/02 08:59:57;;;;;;;3.53;1.90;;;28.20;70.60;;;;;;4995422;28;20026;-68
2022/09/02 09:02:55;;;;;;;6.40;1.63;;;28.30;70.40;;;;;;4995119;28;20042;-68
2022/09/02 09:06:00;;;;;;;3.08;2.00;;;28.40;70.00;;;;;;4994617;28;20023;-68
2022/09/02 09:08:46;;;;;;;5.40;1.70;;;28.50;70.20;;;;;;4995128;28;20022;-70
2022/09/02 09:11:22;;;;;;;4.68;1.77;;;28.70;69.80;;;;;;4995134;28;20030;-67
2022/09/02 09:14:24;;;;;;;6.95;2.00;;;29.00;69.40;;;;;;4993271;28;20034;-69
2022/09/02 09:16:58;;;;;;;4.97;1.70;;;29.30;68.90;;;;;;4994998;28;20045;-68
2022/09/02 09:19:42;;;;;;;4.03;1.70;;;29.30;68.50;;;;;;4994677;28;20030;-68
2022/09/02 09:22:13;;;;;;;4.30;1.73;;;29.40;68.40;;;;;;4994628;28;20026;-67
2022/09/02 09:24:41;;;;;;;5.63;1.75;;;29.40;68.50;;;;;;4994556;28;20464;-70
2022/09/02 09:27:16;;;;;;;3.63;1.73;;;29.40;68.20;;;;;;4994819;28;20018;-68
2022/09/02 09:29:43;;;;;;;5.50;1.58;;;29.50;68.00;;;;;;4992926;28;20018;-69
2022/09/02 09:32:24;;;;;;;3.03;1.77;;;29.60;67.60;;;;;;4994243;28;20125;-67
2022/09/02 09:34:52;;;;;;;5.95;1.83;;;30.00;67.30;;;;;;4994210;28;20037;-70
2022/09/02 09:37:34;;;;;;;7.25;1.67;;;30.50;66.50;;;;;;4994904;28;20049;-68
2022/09/02 09:40:00;;;;;;;7.28;2.08;;;30.90;65.80;;;;;;4994278;28;20085;-68
2022/09/02 09:42:31;;;;;;;8.35;2.00;;;31.20;65.40;;;;;;4993286;28;20424;-71
2022/09/02 09:44:57;;;;;;;;;;;31.40;64.70;;;;;;4994605;28;20021;-70
2022/09/02 09:47:24;;;;;;;3.03;1.75;;;31.60;64.20;;;;;;4994488;28;20422;-69
2022/09/02 09:50:12;;;;;;;3.72;1.80;;;31.70;64.10;;;;;;4993931;28;20077;-68
2022/09/02 09:52:38;;;;;;;3.90;1.63;;;31.80;63.80;;;;;;4993058;28;20105;-67
2022/09/02 09:55:15;;;;;;;3.78;1.80;;;31.80;63.70;;;;;;4993301;28;20117;-67
2022/09/02 09:57:43;;;;;;;6.15;1.60;;;31.70;63.60;;;;;;4994279;28;20031;-67
2022/09/02 10:00:13;;;;;;;3.60;1.50;;;31.90;63.50;;;;;;4992999;28;20030;-66
2022/09/02 10:02:46;;;;;;;7.97;1.90;;;32.00;63.40;;;;;;4992747;28;20022;-67
2022/09/02 10:05:23;;;;;;;5.22;1.90;;;32.10;63.00;;;;;;4992123;28;20053;-67
2022/09/02 10:08:01;;;;;;;7.25;2.00;;;32.20;63.00;;;;;;4993762;28;20023;-67
2022/09/02 10:10:29;;;;;;;5.30;1.98;;;32.50;62.30;;;;;;4993985;28;20065;-68
2022/09/02 10:13:15;;;;;;;10.52;1.95;;;32.80;61.90;;;;;;4994137;28;20473;-70
2022/09/02 10:16:14;;;;;;;3.55;2.13;;;33.20;61.60;;;;;;4993986;28;20097;-68
2022/09/02 10:19:02;;;;;;;5.63;2.30;;;33.40;60.80;;;;;;4993891;28;20052;-67
2022/09/02 10:21:55;;;;;;;8.27;1.85;;;33.30;60.80;;;;;;4992988;28;20093;-67
2022/09/02 10:24:39;;;;;;;5.72;1.67;;;33.30;60.80;;;;;;4993875;28;20030;-67
2022/09/02 10:27:10;;;;;;;3.17;1.52;;;33.30;60.30;;;;;;4993694;28;20085;-67
2022/09/02 10:29:51;;;;;;;3.55;1.85;;;33.40;60.50;;;;;;4992188;28;20376;-66
2022/09/02 10:32:25;;;;;;;8.97;2.50;;;33.70;60.00;;;;;;4993134;28;20431;-69
2022/09/02 10:35:22;;;;;;;7.88;2.55;;;33.80;59.50;;;;;;4992233;28;20026;-67
2022/09/02 10:38:06;;;;;;;5.65;2.17;;;33.70;59.50;;;;;;4989029;28;20100;-67
2022/09/02 10:40:56;;;;;;;6.88;2.20;;;33.80;58.80;;;;;;4993416;28;20034;-66
2022/09/02 10:43:55;;;;;;;14.05;2.78;;;33.70;58.80;;;;;;4992296;28;20077;-67
2022/09/02 10:46:23;;;;;;;6.03;2.35;;;33.40;59.10;;;;;;4993181;28;20171;-68
2022/09/02 10:49:26;;;;;;;3.20;2.05;;;33.40;59.30;;;;;;4993442;28;20341;-68
2022/09/02 10:51:56;;;;;;;6.65;1.73;;;33.60;59.30;;;;;;4992604;28;20032;-67
2022/09/02 10:54:31;;;;;;;3.85;2.05;;;34.00;58.70;;;;;;4993041;28;20134;-70
2022/09/02 10:57:09;;;;;;;5.63;1.70;;;34.40;57.80;;;;;;4993317;28;20101;-69
2022/09/02 10:59:49;;;;;;;4.93;1.70;;;34.50;57.80;;;;;;4993018;28;20169;-67
2022/09/02 11:02:30;;;;;;;6.82;1.90;;;34.50;57.80;;;;;;4992827;28;20045;-68
2022/09/02 11:05:03;;;;;;;3.60;1.92;;;34.70;57.80;;;;;;4993189;28;20360;-67
2022/09/02 11:07:41;;;;;;;13.57;2.70;;;34.90;57.80;;;;;;4993038;28;20337;-67
2022/09/02 11:10:21;;;;;;;7.93;2.30;;;35.10;57.50;;;;;;4993242;28;20047;-69
2022/09/02 11:12:56;;;;;;;4.57;2.17;;;35.60;57.20;;;;;;4991357;28;20054;-66
2022/09/02 11:15:46;;;;;;;7.45;2.40;;;36.20;56.80;;;;;;4993043;28;20044;-67
2022/09/02 11:18:42;;;;;;;8.48;2.25;;;36.80;56.20;;;;;;4993087;28;20037;-67
2022/09/02 11:21:23;;;;;;;7.03;2.22;;;37.30;54.80;;;;;;4992883;28;20041;-67
2022/09/02 11:23:58;;;;;;;7.90;2.15;;;37.50;54.90;;;;;;4992931;28;20022;-67
2022/09/02 11:26:51;;;;;;;5.72;1.98;;;38.00;54.10;;;;;;4992572;28;20027;-67
2022/09/02 11:29:20;;;;;;;4.38;2.08;;;38.00;53.60;;;;;;4992545;28;20018;-68
2022/09/02 11:32:04;;;;;;;8.15;2.00;;;38.10;53.50;;;;;;4992791;28;20141;-67
2022/09/02 11:34:34;;;;;;;4.97;2.15;;;38.10;53.60;;;;;;4991463;28;20026;-67
2022/09/02 11:37:05;;;;;;;6.80;2.17;;;38.10;53.40;;;;;;4992925;28;20015;-70
2022/09/02 11:39:40;;;;;;;4.90;2.20;;;37.90;53.70;;;;;;4992252;28;20376;-66
2022/09/02 11:42:21;;;;;;;6.03;2.55;;;37.80;53.10;;;;;;4992407;28;20076;-70
2022/09/02 11:44:49;;;;;;;;;;;37.90;53.00;;;;;;4993112;28;20069;-66
2022/09/02 11:47:33;;;;;;;8.02;2.15;;;38.20;52.70;;;;;;4992645;28;19909;-68
2022/09/02 11:50:26;;;;;;;5.05;2.25;;;38.30;52.70;;;;;;4992724;28;20065;-67
2022/09/02 11:53:19;;;;;;;4.97;2.17;;;38.60;52.10;;;;;;4992962;28;20058;-67
2022/09/02 11:56:14;;;;;;;5.30;2.05;;;38.70;51.90;;;;;;4996409;28;20035;-67
2022/09/02 11:58:43;;;;;;;5.00;2.08;;;38.40;51.60;;;;;;4996526;28;20026;-68
2022/09/02 12:01:14;;;;;;;5.70;2.38;;;37.90;52.10;;;;;;4995355;28;20053;-69
2022/09/02 12:04:01;;;;;;;5.25;2.00;;;37.50;52.10;;;;;;4991798;28;20029;-67
2022/09/02 12:06:27;;;;;;;8.18;2.30;;;37.50;52.10;;;;;;4996304;28;20018;-68
2022/09/02 12:08:53;;;;;;;4.22;2.00;;;37.60;52.30;;;;;;4995616;28;20029;-69
2022/09/02 12:11:47;;;;;;;8.43;2.10;;;37.80;52.30;;;;;;4994780;28;20388;-67
2022/09/02 12:14:24;;;;;;;4.68;2.25;;;37.70;52.40;;;;;;4995869;28;20034;-67
2022/09/02 12:17:02;;;;;;;5.90;3.05;;;37.90;51.90;;;;;;4976597;28;20035;-66
2022/09/02 12:19:40;;;;;;;5.78;3.20;;;37.90;51.70;;;;;;4993871;28;20030;-67
2022/09/02 12:22:14;;;;;;;9.55;3.40;;;37.70;51.90;;;;;;4996018;28;20113;-67
2022/09/02 12:24:56;;;;;;;6.15;3.00;;;37.50;52.10;;;;;;4995691;28;20406;-67
2022/09/02 12:27:31;;;;;;;6.03;2.58;;;37.40;52.30;;;;;;4996022;28;20023;-68
2022/09/02 12:29:57;;;;;;;6.05;2.15;;;37.30;52.20;;;;;;4995684;28;20073;-67
2022/09/02 12:32:50;;;;;;;6.15;2.35;;;37.40;52.10;;;;;;4995640;28;20026;-67
2022/09/02 12:35:49;;;;;;;7.25;2.53;;;37.50;52.10;;;;;;4995904;28;20109;-68
2022/09/02 12:38:22;;;;;;;9.55;3.08;;;37.40;51.50;;;;;;4995653;28;20026;-68
2022/09/02 12:41:03;;;;;;;4.43;2.30;;;37.10;52.10;;;;;;4991800;28;20035;-67
2022/09/02 12:44:16;;;;;;;4.72;2.22;;;36.70;52.00;;;;;;4993764;28;20030;-67
2022/09/02 12:46:42;;;;;;;6.20;2.20;;;36.40;52.70;;;;;;4995020;28;20349;-66
2022/09/02 12:49:32;;;;;;;8.60;2.45;;;36.10;52.80;;;;;;4994761;28;20033;-67
2022/09/02 12:52:46;;;;;;;7.35;2.00;;;35.70;53.40;;;;;;4994719;28;20022;-66
2022/09/02 12:55:27;;;;;;;3.85;2.20;;;35.10;53.60;;;;;;4992944;28;20019;-68
2022/09/02 12:58:08;;;;;;;8.68;2.47;;;34.70;53.50;;;;;;4993037;28;20046;-67
2022/09/02 13:00:45;;;;;;;4.88;2.30;;;34.30;54.30;;;;;;4993022;28;20046;-68
2022/09/02 13:03:29;;;;;;;5.82;2.75;;;33.90;54.50;;;;;;4991946;28;20025;-69
2022/09/02 13:06:18;;;;;;;7.88;2.50;;;33.50;55.20;;;;;;4994678;28;20026;-69
2022/09/02 13:08:46;;;;;;;4.93;2.50;;;33.10;55.60;;;;;;4993130;28;20460;-67
2022/09/02 13:11:45;;;;;;;7.25;2.20;;;32.80;56.30;;;;;;4995283;28;20030;-67